Time;durP1;ratioP1;P1;durP2;ratioP2;P2;SDS_P1;SDS_P2;PMS_P1;PMS_P2;Temp;Humidity;BMP_temperature;BMP_pressure;BME280_temperature;BME280_humidity;BME280_pressure;Samples;Min_cycle;Max_cycle;Signal;HPM_P1;HPM_P2
2022/09/02 00:01:37;;;;;;;0.73;0.40;;;;;23.90;101632.00;;;;5078222;28;20230;-77
2022/09/02 00:04:06;;;;;;;0.40;0.30;;;;;23.90;101634.00;;;;5089726;28;20198;-77
2022/09/02 00:06:36;;;;;;;0.70;0.50;;;;;23.80;101625.00;;;;5089189;28;20198;-78
2022/09/02 00:09:05;;;;;;;0.90;0.52;;;;;23.80;101625.00;;;;5084957;28;20232;-78
2022/09/02 00:11:33;;;;;;;0.60;0.40;;;;;23.80;101629.00;;;;5088586;28;20198;-78
2022/09/02 00:14:04;;;;;;;0.43;0.25;;;;;23.80;101631.00;;;;5089042;28;20622;-77
2022/09/02 00:16:32;;;;;;;1.20;0.50;;;;;23.80;101626.00;;;;5087866;28;20205;-78
2022/09/02 00:19:01;;;;;;;0.73;0.43;;;;;23.80;101632.00;;;;5089795;28;20304;-77
2022/09/02 00:21:29;;;;;;;1.10;0.45;;;;;23.80;101620.00;;;;5087875;28;20222;-77
2022/09/02 00:23:58;;;;;;;0.73;0.30;;;;;23.80;101627.00;;;;5088567;28;20218;-78
2022/09/02 00:26:26;;;;;;;1.33;0.57;;;;;23.80;101621.00;;;;5087522;28;20195;-77
2022/09/02 00:28:53;;;;;;;0.82;0.50;;;;;23.80;101621.00;;;;5084764;28;20195;-78
2022/09/02 00:31:21;;;;;;;0.77;0.38;;;;;23.70;101627.00;;;;5087647;28;20207;-79
2022/09/02 00:33:50;;;;;;;1.13;0.28;;;;;23.70;101630.00;;;;5087351;28;20205;-78
2022/09/02 00:36:17;;;;;;;0.50;0.40;;;;;23.70;101623.00;;;;5085886;28;20202;-77
2022/09/02 00:38:44;;;;;;;1.20;0.50;;;;;23.70;101622.00;;;;5085789;28;20210;-78
2022/09/02 00:41:14;;;;;;;0.60;0.30;;;;;23.70;101628.00;;;;5085290;28;20226;-78
2022/09/02 00:43:47;;;;;;;0.65;0.38;;;;;23.60;101615.00;;;;5088941;28;20190;-78
2022/09/02 00:46:17;;;;;;;1.98;0.40;;;;;23.60;101619.00;;;;5088803;28;20194;-77
2022/09/02 00:48:48;;;;;;;0.47;0.30;;;;;23.60;101613.00;;;;5088293;28;20201;-79
2022/09/02 00:51:16;;;;;;;2.35;0.50;;;;;23.60;101607.00;;;;5089665;28;20209;-78
2022/09/02 00:53:46;;;;;;;0.45;0.30;;;;;23.60;101602.00;;;;5089239;28;20209;-78
2022/09/02 00:56:20;;;;;;;0.30;0.20;;;;;23.50;101603.00;;;;5088744;28;20193;-78
2022/09/02 00:58:49;;;;;;;1.45;0.47;;;;;23.60;101599.00;;;;5080493;28;20214;-78
2022/09/02 01:01:17;;;;;;;2.72;0.85;;;;;23.60;101597.00;;;;5071157;28;20595;-77
2022/09/02 01:03:44;;;;;;;0.65;0.38;;;;;23.50;101597.00;;;;5088755;28;20190;-77
2022/09/02 01:06:14;;;;;;;2.05;0.47;;;;;23.50;101592.00;;;;5087921;28;20675;-78
2022/09/02 01:08:45;;;;;;;0.88;0.47;;;;;23.50;101597.00;;;;5088150;28;20190;-77
2022/09/02 01:11:15;;;;;;;0.55;0.40;;;;;23.50;101597.00;;;;5088727;28;20210;-78
2022/09/02 01:13:43;;;;;;;0.60;0.40;;;;;23.50;101588.00;;;;5088786;28;20202;-78
2022/09/02 01:16:17;;;;;;;0.77;0.50;;;;;23.40;101591.00;;;;5088601;28;20194;-79
2022/09/02 01:18:49;;;;;;;0.88;0.50;;;;;23.40;101590.00;;;;5089105;28;20194;-78
2022/09/02 01:21:17;;;;;;;3.72;0.52;;;;;23.40;101592.00;;;;5088392;28;20222;-79
2022/09/02 01:23:47;;;;;;;0.88;0.40;;;;;23.30;101592.00;;;;5088936;28;20313;-78
2022/09/02 01:26:14;;;;;;;1.63;0.50;;;;;23.40;101584.00;;;;5088357;28;20652;-78
2022/09/02 01:28:42;;;;;;;0.70;0.38;;;;;23.30;101589.00;;;;5079947;28;20218;-78
2022/09/02 01:31:10;;;;;;;3.78;0.50;;;;;23.30;101582.00;;;;5088078;28;20872;-78
2022/09/02 01:33:37;;;;;;;0.60;0.30;;;;;23.30;101584.00;;;;5083730;28;20278;-78
2022/09/02 01:36:04;;;;;;;0.95;0.50;;;;;23.30;101579.00;;;;5086437;28;20194;-78
2022/09/02 01:38:32;;;;;;;0.50;0.30;;;;;23.20;101579.00;;;;5087631;28;20778;-79
2022/09/02 01:41:01;;;;;;;0.55;0.38;;;;;23.20;101582.00;;;;5088775;28;20203;-77
2022/09/02 01:43:29;;;;;;;0.68;0.47;;;;;23.20;101575.00;;;;5087453;28;20206;-76
2022/09/02 01:45:58;;;;;;;2.65;0.57;;;;;23.20;101575.00;;;;5086986;28;20583;-78
2022/09/02 01:48:25;;;;;;;1.08;0.40;;;;;23.20;101572.00;;;;5087990;28;20202;-77
2022/09/02 01:50:58;;;;;;;0.50;0.40;;;;;23.10;101576.00;;;;5087347;28;20210;-78
2022/09/02 01:53:26;;;;;;;0.75;0.40;;;;;23.10;101570.00;;;;5087175;28;20190;-78
2022/09/02 01:55:54;;;;;;;0.40;0.38;;;;;23.10;101572.00;;;;5085404;28;20202;-78
2022/09/02 01:58:23;;;;;;;3.10;0.63;;;;;23.10;101566.00;;;;5088441;28;20544;-78
2022/09/02 02:00:50;;;;;;;1.40;0.43;;;;;23.10;101565.00;;;;5086416;28;20210;-79
2022/09/02 02:03:18;;;;;;;2.70;0.40;;;;;23.00;101566.00;;;;5086798;28;20933;-79
2022/09/02 02:05:46;;;;;;;0.75;0.60;;;;;23.00;101566.00;;;;5088077;28;20198;-78
2022/09/02 02:08:13;;;;;;;1.02;0.60;;;;;23.00;101568.00;;;;5088135;28;21061;-77
2022/09/02 02:10:42;;;;;;;2.47;1.08;;;;;22.90;101565.00;;;;5087756;28;20672;-78
2022/09/02 02:13:10;;;;;;;2.25;0.50;;;;;22.90;101561.00;;;;5087795;28;20237;-77
2022/09/02 02:15:40;;;;;;;1.67;0.50;;;;;22.90;101563.00;;;;5078888;28;20198;-79
2022/09/02 02:18:08;;;;;;;2.15;0.40;;;;;22.90;101558.00;;;;5077917;28;20198;-77
2022/09/02 02:20:37;;;;;;;0.38;0.30;;;;;22.80;101567.00;;;;5088765;28;20206;-78
2022/09/02 02:23:05;;;;;;;1.02;0.50;;;;;22.80;101563.00;;;;5087683;28;20229;-77
2022/09/02 02:25:32;;;;;;;1.10;0.60;;;;;22.80;101562.00;;;;5087829;28;20283;-77
2022/09/02 02:28:00;;;;;;;1.08;0.52;;;;;22.80;101561.00;;;;5088702;28;20205;-77
2022/09/02 02:30:27;;;;;;;0.75;0.57;;;;;22.80;101566.00;;;;5087939;28;20222;-78
2022/09/02 02:32:56;;;;;;;1.40;0.40;;;;;22.80;101556.00;;;;5083223;28;20205;-78
2022/09/02 02:35:23;;;;;;;0.80;0.52;;;;;22.80;101559.00;;;;5083360;28;20209;-78
2022/09/02 02:37:51;;;;;;;0.75;0.50;;;;;22.70;101558.00;;;;5087594;28;20190;-77
2022/09/02 02:40:22;;;;;;;0.63;0.40;;;;;22.70;101557.00;;;;5084241;28;20195;-78
2022/09/02 02:42:52;;;;;;;2.45;0.60;;;;;22.70;101551.00;;;;5086107;28;20222;-77
2022/09/02 02:45:19;;;;;;;0.60;0.38;;;;;22.70;101555.00;;;;5086469;28;20198;-77
2022/09/02 02:47:46;;;;;;;1.60;0.60;;;;;22.70;101551.00;;;;5089416;28;20201;-77
2022/09/02 02:50:17;;;;;;;0.45;0.40;;;;;22.60;101546.00;;;;5091751;28;20213;-77
2022/09/02 02:52:44;;;;;;;1.13;0.60;;;;;22.70;101549.00;;;;5088249;28;20202;-78
2022/09/02 02:55:16;;;;;;;0.85;0.70;;;;;22.60;101544.00;;;;5090324;28;20194;-78
2022/09/02 02:57:44;;;;;;;2.47;0.30;;;;;22.60;101547.00;;;;5090433;28;20217;-78
2022/09/02 03:00:15;;;;;;;1.58;0.55;;;;;22.60;101545.00;;;;5089992;28;20202;-78
2022/09/02 03:02:43;;;;;;;1.02;0.60;;;;;22.60;101543.00;;;;5089246;28;20594;-78
2022/09/02 03:05:12;;;;;;;2.50;0.50;;;;;22.60;101538.00;;;;5090371;28;20199;-78
2022/09/02 03:07:41;;;;;;;0.68;0.40;;;;;22.50;101531.00;;;;5089050;28;20660;-77
2022/09/02 03:10:11;;;;;;;3.10;0.50;;;;;22.50;101535.00;;;;5090235;28;20707;-78
2022/09/02 03:12:38;;;;;;;0.60;0.45;;;;;22.50;101533.00;;;;5089196;28;20201;-78
2022/09/02 03:15:07;;;;;;;1.00;0.90;;;;;22.50;101536.00;;;;5089627;28;20271;-77
2022/09/02 03:17:35;;;;;;;1.90;0.45;;;;;22.50;101531.00;;;;5090454;28;20205;-77
2022/09/02 03:20:03;;;;;;;0.50;0.40;;;;;22.50;101532.00;;;;5090545;28;20221;-77
2022/09/02 03:22:31;;;;;;;1.40;0.50;;;;;22.50;101536.00;;;;5088946;28;20233;-77
2022/09/02 03:24:59;;;;;;;0.50;0.50;;;;;22.40;101527.00;;;;5090157;28;20226;-77
2022/09/02 03:27:27;;;;;;;0.80;0.50;;;;;22.40;101537.00;;;;5090115;28;20202;-78
2022/09/02 03:29:54;;;;;;;0.85;0.50;;;;;22.40;101526.00;;;;5088290;28;20230;-77
2022/09/02 03:32:21;;;;;;;0.98;0.40;;;;;22.40;101530.00;;;;5089041;28;20201;-78
2022/09/02 03:34:49;;;;;;;1.55;0.63;;;;;22.40;101531.00;;;;5088630;28;21004;-77
2022/09/02 03:37:16;;;;;;;1.05;0.45;;;;;22.40;101524.00;;;;5074950;28;20199;-77
2022/09/02 03:39:44;;;;;;;0.85;0.40;;;;;22.40;101524.00;;;;5088529;28;20213;-77
2022/09/02 03:42:13;;;;;;;1.60;0.40;;;;;22.30;101526.00;;;;5088741;28;20228;-78
2022/09/02 03:44:40;;;;;;;0.60;0.50;;;;;22.30;101521.00;;;;5081568;28;20198;-77
2022/09/02 03:47:07;;;;;;;0.70;0.50;;;;;22.30;101525.00;;;;5089819;28;20313;-77
2022/09/02 03:49:35;;;;;;;1.00;0.60;;;;;22.30;101524.00;;;;5089847;28;20202;-77
2022/09/02 03:52:02;;;;;;;0.88;0.50;;;;;22.30;101516.00;;;;5089753;28;20202;-78
2022/09/02 03:54:30;;;;;;;1.10;0.50;;;;;22.30;101514.00;;;;5087039;28;20600;-77
2022/09/02 03:56:57;;;;;;;2.05;1.05;;;;;22.30;101508.00;;;;5089456;28;20191;-77
2022/09/02 03:59:26;;;;;;;0.73;0.60;;;;;22.20;101510.00;;;;5089182;28;20217;-78
2022/09/02 04:01:53;;;;;;;0.70;0.50;;;;;22.20;101503.00;;;;5089900;28;20214;-78
2022/09/02 04:04:21;;;;;;;0.65;0.50;;;;;22.20;101504.00;;;;5089100;28;20190;-78
2022/09/02 04:06:49;;;;;;;1.80;1.00;;;;;22.20;101507.00;;;;5089868;28;20195;-78
2022/09/02 04:09:16;;;;;;;1.00;0.50;;;;;22.20;101508.00;;;;5091230;28;20191;-78
2022/09/02 04:11:43;;;;;;;0.68;0.35;;;;;22.20;101498.00;;;;5089442;28;20202;-77
2022/09/02 04:14:11;;;;;;;0.90;0.52;;;;;22.20;101501.00;;;;5079916;28;20194;-78
2022/09/02 04:16:40;;;;;;;2.28;0.50;;;;;22.10;101494.00;;;;5089313;28;20217;-77
2022/09/02 04:19:08;;;;;;;0.50;0.43;;;;;22.10;101498.00;;;;5089957;28;20205;-78
2022/09/02 04:21:38;;;;;;;2.30;0.47;;;;;22.10;101496.00;;;;5089708;28;20201;-77
2022/09/02 04:24:06;;;;;;;2.05;0.50;;;;;22.10;101492.00;;;;5089189;28;20218;-77
2022/09/02 04:26:34;;;;;;;0.52;0.50;;;;;22.10;101489.00;;;;5075410;28;20213;-78
2022/09/02 04:29:01;;;;;;;2.83;0.30;;;;;22.10;101494.00;;;;5079668;28;20616;-77
2022/09/02 04:31:30;;;;;;;0.70;0.45;;;;;22.10;101495.00;;;;5069485;28;20577;-79
2022/09/02 04:34:00;;;;;;;0.85;0.47;;;;;22.00;101496.00;;;;5083008;28;20271;-78
2022/09/02 04:36:28;;;;;;;0.70;0.40;;;;;22.00;101494.00;;;;5086835;28;20205;-79
2022/09/02 04:38:56;;;;;;;1.50;0.40;;;;;22.00;101497.00;;;;5089320;28;20201;-78
2022/09/02 04:41:27;;;;;;;1.00;0.40;;;;;22.00;101501.00;;;;5089771;28;20210;-78
2022/09/02 04:43:56;;;;;;;1.17;0.50;;;;;22.00;101498.00;;;;5089712;28;20572;-79
2022/09/02 04:46:24;;;;;;;1.80;0.50;;;;;22.00;101492.00;;;;5082972;28;20193;-79
2022/09/02 04:48:52;;;;;;;0.98;0.47;;;;;22.00;101494.00;;;;5088142;28;20679;-78
2022/09/02 04:51:22;;;;;;;2.20;0.60;;;;;21.90;101497.00;;;;5087056;28;20589;-78
2022/09/02 04:53:52;;;;;;;0.60;0.50;;;;;21.90;101491.00;;;;5083509;28;20194;-78
2022/09/02 04:56:21;;;;;;;2.38;0.50;;;;;21.90;101488.00;;;;5088304;28;20194;-78
2022/09/02 04:58:50;;;;;;;0.95;0.50;;;;;21.90;101487.00;;;;5088639;28;20202;-78
2022/09/02 05:01:20;;;;;;;2.28;0.40;;;;;21.90;101492.00;;;;5087575;28;20193;-78
2022/09/02 05:03:48;;;;;;;1.45;0.63;;;;;21.90;101487.00;;;;5085328;28;20471;-77
2022/09/02 05:06:25;;;;;;;2.80;0.68;;;;;22.00;101490.00;;;;5088164;28;20198;-78
2022/09/02 05:08:53;;;;;;;0.77;0.60;;;;;22.00;101494.00;;;;5083676;28;20776;-77
2022/09/02 05:11:27;;;;;;;0.65;0.60;;;;;21.90;101489.00;;;;5087766;28;20221;-78
2022/09/02 05:13:55;;;;;;;0.90;0.55;;;;;22.00;101484.00;;;;5085722;28;20230;-78
2022/09/02 05:16:26;;;;;;;0.60;0.43;;;;;21.90;101492.00;;;;5085039;28;20187;-76
2022/09/02 05:18:54;;;;;;;0.70;0.40;;;;;22.00;101487.00;;;;5076483;28;20191;-76
2022/09/02 05:21:24;;;;;;;1.50;0.55;;;;;21.90;101489.00;;;;5088156;28;20600;-76
2022/09/02 05:23:52;;;;;;;2.03;0.60;;;;;22.00;101491.00;;;;5083746;28;20711;-75
2022/09/02 05:26:20;;;;;;;3.63;0.90;;;;;22.00;101494.00;;;;5086926;28;20194;-77
2022/09/02 05:28:47;;;;;;;0.77;0.52;;;;;22.00;101498.00;;;;5086985;28;20190;-77
2022/09/02 05:31:16;;;;;;;1.00;0.50;;;;;22.00;101494.00;;;;5084564;28;20209;-78
2022/09/02 05:33:44;;;;;;;1.77;0.52;;;;;22.00;101492.00;;;;5085633;28;20736;-77
2022/09/02 05:36:14;;;;;;;1.25;0.43;;;;;22.00;101492.00;;;;5081335;28;20273;-77
2022/09/02 05:38:44;;;;;;;0.50;0.40;;;;;22.00;101494.00;;;;5072047;28;20203;-77
2022/09/02 05:41:14;;;;;;;0.73;0.50;;;;;22.00;101487.00;;;;5074471;28;20209;-77
2022/09/02 05:43:44;;;;;;;0.43;0.40;;;;;22.10;101484.00;;;;5085673;28;20222;-76
2022/09/02 05:46:16;;;;;;;0.85;0.50;;;;;22.10;101487.00;;;;5086925;28;20198;-77
2022/09/02 05:51:30;;;;;;;2.30;0.50;;;;;22.10;101491.00;;;;5087595;28;20225;-80
2022/09/02 05:54:00;;;;;;;0.90;0.50;;;;;22.10;101491.00;;;;5086268;28;20194;-79
2022/09/02 05:56:27;;;;;;;1.10;0.70;;;;;22.20;101486.00;;;;5086953;28;20205;-80
2022/09/02 05:58:57;;;;;;;1.92;0.50;;;;;22.20;101482.00;;;;5086891;28;20202;-79
2022/09/02 06:01:25;;;;;;;0.63;0.55;;;;;22.20;101485.00;;;;5084599;28;20198;-79
2022/09/02 06:03:52;;;;;;;2.45;0.95;;;;;22.20;101485.00;;;;5086233;28;20226;-78
2022/09/02 06:06:21;;;;;;;0.73;0.45;;;;;22.20;101481.00;;;;5083366;28;20213;-78
2022/09/02 06:08:49;;;;;;;1.38;0.50;;;;;22.30;101483.00;;;;5083456;28;20321;-78
2022/09/02 06:11:18;;;;;;;0.95;0.50;;;;;22.30;101479.00;;;;5088113;28;20574;-78
2022/09/02 06:13:47;;;;;;;0.90;0.52;;;;;22.40;101486.00;;;;5086138;28;20241;-77
2022/09/02 06:16:15;;;;;;;1.58;0.68;;;;;22.40;101480.00;;;;5086691;28;20202;-77
2022/09/02 06:18:43;;;;;;;2.80;0.93;;;;;22.50;101480.00;;;;5087105;28;20198;-79
2022/09/02 06:21:10;;;;;;;1.42;0.50;;;;;22.50;101479.00;;;;5090779;28;20202;-77
2022/09/02 06:23:39;;;;;;;0.85;0.52;;;;;22.60;101483.00;;;;5091638;28;20226;-79
2022/09/02 06:26:07;;;;;;;1.90;0.50;;;;;22.60;101475.00;;;;5088936;28;20656;-79
2022/09/02 06:28:37;;;;;;;4.13;0.50;;;;;22.60;101482.00;;;;5091526;28;20211;-79
2022/09/02 06:31:08;;;;;;;2.60;0.82;;;;;22.60;101480.00;;;;5088949;28;20206;-78
2022/09/02 06:33:36;;;;;;;0.80;0.50;;;;;22.70;101484.00;;;;5088903;28;20652;-79
2022/09/02 06:36:07;;;;;;;1.58;0.52;;;;;22.70;101482.00;;;;5090253;28;20582;-79
2022/09/02 06:38:37;;;;;;;5.03;0.65;;;;;22.70;101478.00;;;;5088321;28;20757;-79
2022/09/02 06:41:05;;;;;;;4.78;0.90;;;;;22.80;101491.00;;;;5092270;28;20233;-79
2022/09/02 06:43:33;;;;;;;1.50;0.65;;;;;22.80;101485.00;;;;5090785;28;20711;-79
2022/09/02 06:46:01;;;;;;;1.45;0.70;;;;;22.80;101486.00;;;;5090762;28;20271;-78
2022/09/02 06:48:29;;;;;;;1.45;0.77;;;;;22.90;101479.00;;;;5090543;28;20207;-79
2022/09/02 06:50:56;;;;;;;2.33;0.80;;;;;22.90;101479.00;;;;5089934;28;20194;-78
2022/09/02 06:53:24;;;;;;;2.72;0.73;;;;;23.00;101479.00;;;;5090823;28;20634;-78
2022/09/02 06:55:51;;;;;;;2.20;0.75;;;;;23.00;101472.00;;;;5088668;28;20717;-77
2022/09/02 06:58:19;;;;;;;0.70;0.50;;;;;23.00;101463.00;;;;5087560;28;20221;-79
2022/09/02 07:00:46;;;;;;;0.75;0.50;;;;;23.10;101472.00;;;;5087902;28;20723;-77
2022/09/02 07:06:02;;;;;;;2.50;0.47;;;;;23.10;101474.00;;;;5086702;28;20217;-78
2022/09/02 07:08:29;;;;;;;2.60;0.70;;;;;23.10;101468.00;;;;5090214;28;20205;-78
2022/09/02 07:10:57;;;;;;;1.52;0.60;;;;;23.20;101470.00;;;;5091414;28;20225;-77
2022/09/02 07:13:24;;;;;;;1.38;0.68;;;;;23.20;101469.00;;;;5087845;28;20493;-78
2022/09/02 07:15:51;;;;;;;0.98;0.50;;;;;23.20;101470.00;;;;5090025;28;20668;-78
2022/09/02 07:18:20;;;;;;;1.23;0.68;;;;;23.30;101460.00;;;;5088997;28;20571;-78
2022/09/02 07:20:47;;;;;;;2.08;0.55;;;;;23.30;101457.00;;;;5091066;28;20648;-78
2022/09/02 07:23:16;;;;;;;2.58;0.80;;;;;23.40;101464.00;;;;5090664;28;20230;-78
2022/09/02 07:25:46;;;;;;;0.88;0.50;;;;;23.40;101462.00;;;;5088538;28;20279;-78
2022/09/02 07:28:13;;;;;;;1.13;0.57;;;;;23.50;101455.00;;;;5089506;28;20198;-81
2022/09/02 07:30:42;;;;;;;0.93;0.70;;;;;23.50;101463.00;;;;5079319;28;20616;-79
2022/09/02 07:33:12;;;;;;;1.88;0.82;;;;;23.60;101463.00;;;;5075808;28;20605;-80
2022/09/02 07:35:41;;;;;;;0.85;0.63;;;;;23.70;101458.00;;;;5087265;28;20689;-80
2022/09/02 07:38:08;;;;;;;2.20;0.70;;;;;23.80;101465.00;;;;5090068;28;20229;-79
2022/09/02 07:40:37;;;;;;;1.98;0.82;;;;;23.90;101459.00;;;;5088012;28;20633;-79
2022/09/02 07:43:06;;;;;;;0.93;0.57;;;;;24.00;101460.00;;;;5090901;28;20232;-79
2022/09/02 07:45:34;;;;;;;1.30;0.70;;;;;24.20;101459.00;;;;5089663;28;20249;-80
2022/09/02 07:48:05;;;;;;;1.65;0.80;;;;;24.30;101456.00;;;;5088569;28;20652;-78
2022/09/02 07:50:34;;;;;;;1.27;0.63;;;;;24.40;101464.00;;;;5089618;28;21341;-78
2022/09/02 07:53:05;;;;;;;1.17;0.85;;;;;24.50;101451.00;;;;5090213;28;20237;-78
2022/09/02 07:55:34;;;;;;;3.03;1.20;;;;;24.70;101456.00;;;;5089375;28;20591;-78
2022/09/02 07:58:02;;;;;;;3.58;0.95;;;;;24.80;101458.00;;;;5088972;28;20226;-78
2022/09/02 08:00:29;;;;;;;4.38;1.00;;;;;24.90;101452.00;;;;5089799;28;20205;-78
2022/09/02 08:02:57;;;;;;;0.70;0.60;;;;;25.00;101455.00;;;;5087484;28;20213;-78
2022/09/02 08:05:25;;;;;;;1.63;0.88;;;;;25.10;101461.00;;;;5083931;28;20195;-79
2022/09/02 08:07:52;;;;;;;1.13;0.70;;;;;25.10;101463.00;;;;5069700;28;20629;-78
2022/09/02 08:10:24;;;;;;;1.60;0.80;;;;;25.20;101455.00;;;;5089995;28;20202;-77
2022/09/02 08:12:52;;;;;;;0.63;0.40;;;;;25.30;101461.00;;;;5089576;28;20210;-78
2022/09/02 08:15:20;;;;;;;1.35;1.10;;;;;25.40;101453.00;;;;5088482;28;20209;-78
2022/09/02 08:17:48;;;;;;;0.95;0.73;;;;;25.50;101452.00;;;;5085658;28;20202;-78
2022/09/02 08:20:17;;;;;;;1.05;0.95;;;;;25.70;101455.00;;;;5087134;28;20593;-78
2022/09/02 08:22:44;;;;;;;1.20;0.80;;;;;25.80;101462.00;;;;5088635;28;20209;-79
2022/09/02 08:25:12;;;;;;;1.60;0.70;;;;;25.90;101455.00;;;;5088298;28;20266;-79
2022/09/02 08:27:40;;;;;;;1.00;0.70;;;;;25.90;101454.00;;;;5089028;28;20205;-78
2022/09/02 08:30:09;;;;;;;1.15;0.73;;;;;26.00;101454.00;;;;5086653;28;20241;-79
2022/09/02 08:32:37;;;;;;;0.90;0.50;;;;;26.10;101449.00;;;;5088992;28;20194;-78
2022/09/02 08:35:05;;;;;;;1.70;0.77;;;;;26.20;101441.00;;;;5089494;28;20194;-78
2022/09/02 08:37:34;;;;;;;1.23;0.63;;;;;26.30;101450.00;;;;5089037;28;20198;-78
2022/09/02 08:40:04;;;;;;;1.33;0.65;;;;;26.40;101444.00;;;;5089760;28;20202;-78
2022/09/02 08:42:36;;;;;;;3.65;1.17;;;;;26.50;101447.00;;;;5087568;28;20201;-78
2022/09/02 08:45:11;;;;;;;1.35;0.90;;;;;26.60;101448.00;;;;5089402;28;20253;-78
2022/09/02 08:47:42;;;;;;;2.13;1.00;;;;;26.70;101450.00;;;;5088799;28;20198;-79
2022/09/02 08:50:13;;;;;;;11.40;1.25;;;;;26.80;101446.00;;;;5089304;28;20206;-79
2022/09/02 08:52:47;;;;;;;1.75;0.68;;;;;26.90;101443.00;;;;5074402;28;20680;-78
2022/09/02 08:55:19;;;;;;;2.88;0.98;;;;;27.00;101432.00;;;;5087973;28;20198;-76
2022/09/02 08:57:48;;;;;;;0.95;0.73;;;;;27.00;101439.00;;;;5076379;28;20260;-77
2022/09/02 09:00:17;;;;;;;1.52;0.75;;;;;27.10;101432.00;;;;5068585;28;20722;-76
2022/09/02 09:02:55;;;;;;;5.00;0.85;;;;;27.10;101434.00;;;;5069168;28;20207;-76
2022/09/02 09:05:30;;;;;;;1.67;0.80;;;;;27.20;101428.00;;;;5071136;28;20236;-76
2022/09/02 09:08:12;;;;;;;2.33;0.70;;;;;27.30;101432.00;;;;5088947;28;20189;-76
2022/09/02 09:10:55;;;;;;;2.03;0.95;;;;;27.40;101432.00;;;;5088858;28;20194;-78
2022/09/02 09:13:41;;;;;;;1.20;0.77;;;;;27.40;101432.00;;;;5088613;28;20202;-78
2022/09/02 09:16:18;;;;;;;1.20;0.70;;;;;27.50;101433.00;;;;5088935;28;20210;-78
2022/09/02 09:18:50;;;;;;;2.13;0.95;;;;;27.50;101431.00;;;;5088152;28;20201;-77
2022/09/02 09:21:18;;;;;;;1.92;0.98;;;;;27.60;101433.00;;;;5088942;28;20542;-77
2022/09/02 09:23:46;;;;;;;3.15;0.98;;;;;27.60;101427.00;;;;5087972;28;20240;-77
2022/09/02 09:26:16;;;;;;;1.08;0.80;;;;;27.60;101438.00;;;;5088330;28;20350;-77
2022/09/02 09:28:46;;;;;;;0.80;0.73;;;;;27.70;101429.00;;;;5067788;28;20210;-77
2022/09/02 09:31:18;;;;;;;1.27;1.08;;;;;27.70;101430.00;;;;5085108;28;20203;-77
2022/09/02 09:33:59;;;;;;;1.17;0.90;;;;;27.70;101428.00;;;;5087600;28;20210;-77
2022/09/02 09:36:46;;;;;;;1.80;1.10;;;;;27.70;101428.00;;;;5082549;28;20194;-77
2022/09/02 09:39:19;;;;;;;1.10;0.77;;;;;27.80;101417.00;;;;5085972;28;20649;-78
2022/09/02 09:41:47;;;;;;;2.55;1.00;;;;;27.90;101415.00;;;;5087057;28;20209;-77
2022/09/02 09:44:37;;;;;;;3.30;0.90;;;;;27.90;101417.00;;;;5090528;28;20222;-77
2022/09/02 09:47:08;;;;;;;1.77;1.00;;;;;28.00;101421.00;;;;5086517;28;20202;-79
2022/09/02 09:49:36;;;;;;;4.10;0.80;;;;;28.10;101421.00;;;;5090076;28;20553;-78
2022/09/02 09:52:04;;;;;;;1.52;0.75;;;;;28.10;101419.00;;;;5090769;28;20205;-78
2022/09/02 09:54:32;;;;;;;4.43;1.33;;;;;28.20;101419.00;;;;5089731;28;20202;-78
2022/09/02 09:57:17;;;;;;;1.77;0.90;;;;;28.10;101422.00;;;;5086338;28;20190;-76
2022/09/02 09:59:48;;;;;;;2.40;1.05;;;;;28.20;101417.00;;;;5080589;28;20209;-76
2022/09/02 10:02:23;;;;;;;4.10;1.27;;;;;28.30;101414.00;;;;5087302;28;20209;-76
2022/09/02 10:04:52;;;;;;;2.28;1.15;;;;;28.40;101409.00;;;;5086628;28;20229;-78
2022/09/02 10:07:36;;;;;;;2.42;1.17;;;;;28.30;101408.00;;;;5087385;28;20202;-78
2022/09/02 10:10:17;;;;;;;3.28;1.02;;;;;28.40;101415.00;;;;5079068;28;20201;-77
2022/09/02 10:12:45;;;;;;;1.25;1.08;;;;;28.50;101407.00;;;;5086783;28;20203;-78
2022/09/02 10:15:14;;;;;;;2.58;1.10;;;;;28.60;101409.00;;;;5086726;28;20202;-78
2022/09/02 10:17:53;;;;;;;3.53;1.15;;;;;28.60;101409.00;;;;5075681;28;20194;-80
2022/09/02 10:20:27;;;;;;;2.08;0.82;;;;;28.70;101413.00;;;;5076703;28;20192;-79
2022/09/02 10:23:14;;;;;;;2.28;0.95;;;;;28.70;101410.00;;;;5087372;28;20209;-80
2022/09/02 10:25:55;;;;;;;2.53;1.17;;;;;28.80;101399.00;;;;5086449;28;20229;-80
2022/09/02 10:28:35;;;;;;;2.97;1.00;;;;;29.00;101411.00;;;;5083820;28;20198;-82
2022/09/02 10:31:14;;;;;;;2.13;1.20;;;;;29.00;101411.00;;;;5078796;28;20193;-80
2022/09/02 10:33:54;;;;;;;1.38;1.23;;;;;29.10;101396.00;;;;5083721;28;20530;-79
2022/09/02 10:36:30;;;;;;;2.95;1.05;;;;;29.20;101395.00;;;;5070947;28;20202;-79
2022/09/02 10:39:11;;;;;;;1.80;1.05;;;;;29.30;101387.00;;;;5071188;28;20205;-79
2022/09/02 10:41:45;;;;;;;2.60;1.27;;;;;29.30;101389.00;;;;5085202;28;20209;-79
2022/09/02 10:44:29;;;;;;;2.00;1.05;;;;;29.40;101389.00;;;;5086909;28;20222;-78
2022/09/02 10:47:01;;;;;;;1.20;1.00;;;;;29.50;101393.00;;;;5078239;28;20194;-78
2022/09/02 10:49:47;;;;;;;3.22;1.70;;;;;29.60;101393.00;;;;5086527;28;20206;-78
2022/09/02 10:52:38;;;;;;;1.45;0.93;;;;;29.70;101393.00;;;;5074008;28;20205;-78
2022/09/02 10:55:16;;;;;;;1.58;1.10;;;;;29.90;101378.00;;;;5086095;28;20214;-78
2022/09/02 10:57:49;;;;;;;0.68;0.68;;;;;30.10;101382.00;;;;5078832;28;20191;-78
2022/09/02 11:00:19;;;;;;;3.42;1.45;;;;;30.20;101376.00;;;;5084675;28;20556;-78
2022/09/02 11:02:50;;;;;;;2.70;1.05;;;;;30.30;101390.00;;;;5086546;28;20242;-79
2022/09/02 11:05:24;;;;;;;1.80;1.23;;;;;30.50;101379.00;;;;5079228;28;20230;-78
2022/09/02 11:07:55;;;;;;;2.10;1.50;;;;;30.60;101376.00;;;;5083267;28;20217;-78
2022/09/02 11:10:26;;;;;;;1.60;1.00;;;;;30.80;101375.00;;;;5089583;28;20190;-78
2022/09/02 11:13:01;;;;;;;4.45;1.33;;;;;30.90;101376.00;;;;5077078;28;20244;-78
2022/09/02 11:15:41;;;;;;;1.90;1.58;;;;;31.00;101376.00;;;;5089687;28;20202;-78
2022/09/02 11:18:17;;;;;;;2.80;1.20;;;;;31.10;101373.00;;;;5090611;28;20653;-78
2022/09/02 11:20:52;;;;;;;1.65;1.23;;;;;31.20;101378.00;;;;5089553;28;20291;-77
2022/09/02 11:23:29;;;;;;;1.73;1.20;;;;;31.30;101364.00;;;;5076394;28;20233;-77
2022/09/02 11:26:04;;;;;;;3.40;1.00;;;;;31.40;101377.00;;;;5089786;28;20691;-78
2022/09/02 11:28:39;;;;;;;3.88;1.13;;;;;31.50;101368.00;;;;5090126;28;20336;-78
2022/09/02 11:31:12;;;;;;;1.52;1.10;;;;;31.60;101370.00;;;;5080672;28;20190;-78
2022/09/02 11:33:50;;;;;;;1.00;0.88;;;;;31.60;101365.00;;;;5089501;28;20578;-78
2022/09/02 11:36:19;;;;;;;1.75;1.10;;;;;31.80;101370.00;;;;5074362;28;20673;-78
2022/09/02 11:38:52;;;;;;;4.57;1.42;;;;;31.80;101356.00;;;;5086816;28;20206;-80
2022/09/02 11:41:31;;;;;;;2.13;1.10;;;;;31.90;101357.00;;;;5088313;28;20251;-80
2022/09/02 11:44:12;;;;;;;3.13;1.20;;;;;32.00;101352.00;;;;5078462;28;20190;-79
2022/09/02 11:47:08;;;;;;;2.75;1.33;;;;;32.00;101346.00;;;;5079762;28;20660;-81
2022/09/02 11:50:05;;;;;;;4.32;1.00;;;;;32.00;101340.00;;;;5067676;28;20194;-81
2022/09/02 11:52:49;;;;;;;0.93;0.93;;;;;32.10;101335.00;;;;5085104;28;20198;-80
2022/09/02 11:55:20;;;;;;;3.00;1.30;;;;;32.20;101341.00;;;;5082603;28;20202;-79
2022/09/02 11:57:53;;;;;;;2.08;1.20;;;;;32.20;101340.00;;;;5084918;28;20194;-79
2022/09/02 12:00:33;;;;;;;3.70;1.40;;;;;32.30;101341.00;;;;5089530;28;20212;-78
2022/09/02 12:03:18;;;;;;;2.10;0.95;;;;;32.30;101333.00;;;;5080782;28;20856;-78
2022/09/02 12:06:03;;;;;;;2.78;1.23;;;;;32.40;101344.00;;;;5077874;28;20265;-79
2022/09/02 12:09:02;;;;;;;1.45;1.17;;;;;32.40;101340.00;;;;5085217;28;20205;-80
2022/09/02 12:11:44;;;;;;;2.17;0.98;;;;;32.50;101334.00;;;;5086353;28;20198;-80
2022/09/02 12:14:32;;;;;;;7.13;1.45;;;;;32.60;101339.00;;;;5086311;28;20206;-81
2022/09/02 12:17:02;;;;;;;1.08;0.98;;;;;32.60;101329.00;;;;5074117;28;20198;-78
2022/09/02 12:19:41;;;;;;;1.63;1.35;;;;;32.60;101326.00;;;;5085302;28;20194;-78
2022/09/02 12:22:37;;;;;;;2.25;1.17;;;;;32.70;101311.00;;;;5088465;28;20206;-78
2022/09/02 12:25:25;;;;;;;1.40;1.30;;;;;32.80;101312.00;;;;5083536;28;20307;-78
2022/09/02 12:28:22;;;;;;;2.10;1.10;;;;;32.80;101318.00;;;;5080506;28;20202;-78
2022/09/02 12:31:17;;;;;;;2.78;1.42;;;;;32.80;101321.00;;;;5036803;28;1041520;-78
2022/09/02 12:33:48;;;;;;;1.85;1.20;;;;;32.90;101311.00;;;;5078287;28;20191;-78